Time;durP1;ratioP1;P1;durP2;ratioP2;P2;SDS_P1;SDS_P2;PMS_P1;PMS_P2;Temp;Humidity;BMP_temperature;BMP_pressure;BME280_temperature;BME280_humidity;BME280_pressure;Samples;Min_cycle;Max_cycle;Signal;HPM_P1;HPM_P2
2024/01/07 00:01:47;;;;;;;15.30;3.85;;;11.30;99.90;;;;;;4954368;28;20057;-85
2024/01/07 00:04:16;;;;;;;8.10;4.25;;;11.40;99.90;;;;;;4954469;28;20036;-81
2024/01/07 00:06:44;;;;;;;10.90;4.03;;;11.40;99.90;;;;;;4954376;29;20104;-85
2024/01/07 00:09:15;;;;;;;11.82;4.50;;;11.40;99.90;;;;;;4961843;28;20043;-86
2024/01/07 00:11:41;;;;;;;10.43;4.20;;;11.50;99.90;;;;;;4973602;28;20030;-84
2024/01/07 00:14:08;;;;;;;7.03;4.40;;;11.50;99.90;;;;;;4972464;28;20030;-81
2024/01/07 00:16:34;;;;;;;13.93;4.20;;;11.50;99.90;;;;;;4972544;28;20027;-81
2024/01/07 00:19:00;;;;;;;14.15;4.65;;;11.50;99.90;;;;;;4985336;28;20054;-81
2024/01/07 00:21:28;;;;;;;18.77;4.20;;;11.50;99.90;;;;;;5010465;28;20061;-81
2024/01/07 00:23:55;;;;;;;11.00;4.50;;;11.50;99.90;;;;;;4978822;28;20120;-81
2024/01/07 00:26:22;;;;;;;16.13;5.22;;;11.40;99.90;;;;;;4994883;28;20030;-80
2024/01/07 00:28:48;;;;;;;14.57;4.47;;;11.40;99.90;;;;;;4994823;28;20397;-80
2024/01/07 00:31:16;;;;;;;12.38;3.97;;;11.30;99.90;;;;;;5012247;28;20395;-81
2024/01/07 00:33:42;;;;;;;9.05;4.22;;;11.20;99.90;;;;;;4978950;28;20026;-81
2024/01/07 00:36:08;;;;;;;16.38;5.05;;;11.20;99.90;;;;;;4978518;28;20034;-81
2024/01/07 00:38:35;;;;;;;7.22;4.28;;;11.10;99.90;;;;;;4979174;28;20502;-81
2024/01/07 00:41:02;;;;;;;9.25;4.13;;;11.00;99.90;;;;;;4996077;28;20054;-85
2024/01/07 00:43:28;;;;;;;8.25;4.00;;;10.90;99.90;;;;;;4979301;28;20072;-83
2024/01/07 00:45:54;;;;;;;12.60;3.60;;;10.80;99.90;;;;;;4995787;28;20034;-84
2024/01/07 00:48:21;;;;;;;14.18;3.95;;;10.70;99.90;;;;;;4995543;28;20049;-84
2024/01/07 00:50:47;;;;;;;6.10;3.88;;;10.70;99.90;;;;;;4995311;28;20065;-84
2024/01/07 00:53:13;;;;;;;15.73;5.45;;;10.60;99.90;;;;;;4980810;28;20383;-83
2024/01/07 00:55:39;;;;;;;20.85;6.13;;;10.50;99.90;;;;;;4999094;28;20036;-85
2024/01/07 00:58:09;;;;;;;18.33;6.25;;;10.50;99.90;;;;;;4999201;28;20037;-84
2024/01/07 01:00:35;;;;;;;13.93;4.80;;;10.50;99.90;;;;;;4999073;28;20026;-84
2024/01/07 01:03:02;;;;;;;9.52;3.75;;;10.60;99.90;;;;;;4983003;28;20026;-84
2024/01/07 01:05:28;;;;;;;10.00;3.40;;;10.60;99.90;;;;;;4982108;28;20111;-84
2024/01/07 01:07:55;;;;;;;6.38;3.67;;;10.50;99.90;;;;;;4978423;28;20066;-83
2024/01/07 01:10:21;;;;;;;13.00;3.40;;;10.50;99.90;;;;;;4978468;28;20125;-84
2024/01/07 01:12:47;;;;;;;6.07;3.40;;;10.40;99.90;;;;;;4978406;28;20033;-83
2024/01/07 01:15:16;;;;;;;6.18;3.35;;;10.40;99.90;;;;;;4979305;28;20030;-82
2024/01/07 01:17:43;;;;;;;5.05;3.22;;;10.40;99.90;;;;;;4980852;28;20427;-83
2024/01/07 01:20:09;;;;;;;7.53;3.28;;;10.30;99.90;;;;;;4995476;28;20058;-83
2024/01/07 01:22:36;;;;;;;7.45;3.30;;;10.30;99.90;;;;;;4995805;28;20052;-84
2024/01/07 01:25:03;;;;;;;4.53;3.10;;;10.20;99.90;;;;;;4979617;28;20042;-83
2024/01/07 01:27:29;;;;;;;4.82;3.20;;;10.20;99.90;;;;;;4979504;28;20085;-83
2024/01/07 01:29:55;;;;;;;7.28;3.20;;;10.20;99.90;;;;;;4972817;28;20412;-84
2024/01/07 01:32:22;;;;;;;2.97;2.70;;;10.20;99.90;;;;;;4956860;29;20066;-86
2024/01/07 01:34:48;;;;;;;7.47;3.08;;;10.20;99.90;;;;;;4957311;28;20436;-85
2024/01/07 01:37:14;;;;;;;3.55;2.80;;;10.20;99.90;;;;;;4957322;28;20023;-84
2024/01/07 01:39:41;;;;;;;6.85;3.20;;;10.20;99.90;;;;;;4957073;29;20031;-84
2024/01/07 01:42:08;;;;;;;11.45;3.00;;;10.30;99.90;;;;;;4957054;29;20023;-84
2024/01/07 01:44:38;;;;;;;5.55;3.13;;;10.30;99.90;;;;;;4957045;28;20503;-85
2024/01/07 01:47:07;;;;;;;8.82;3.42;;;10.30;99.90;;;;;;4957052;28;20034;-84
2024/01/07 01:49:35;;;;;;;9.82;3.25;;;10.40;99.90;;;;;;4955551;28;20043;-84
2024/01/07 01:52:03;;;;;;;12.25;3.63;;;10.50;99.90;;;;;;4975362;28;20043;-85
2024/01/07 01:54:29;;;;;;;8.70;4.55;;;10.50;99.90;;;;;;4975086;28;20492;-85
2024/01/07 01:56:56;;;;;;;9.07;4.18;;;10.50;99.90;;;;;;4975224;28;20038;-84
2024/01/07 01:59:25;;;;;;;9.55;3.83;;;10.60;99.90;;;;;;4960714;28;20034;-84
2024/01/07 02:01:52;;;;;;;5.15;3.05;;;10.60;99.90;;;;;;4955808;29;20484;-85
2024/01/07 02:04:19;;;;;;;4.72;3.13;;;10.50;99.90;;;;;;4973932;28;20022;-84
2024/01/07 02:06:48;;;;;;;6.13;3.45;;;10.50;99.90;;;;;;4974875;28;20148;-83
2024/01/07 02:09:14;;;;;;;6.57;3.00;;;10.50;99.90;;;;;;4961997;28;20044;-85
2024/01/07 02:11:41;;;;;;;3.88;3.03;;;10.40;99.90;;;;;;4955696;29;20046;-85
2024/01/07 02:14:07;;;;;;;6.72;3.22;;;10.40;99.90;;;;;;4939678;29;20027;-85
2024/01/07 02:16:34;;;;;;;8.70;3.17;;;10.30;99.90;;;;;;4955484;29;20127;-85
2024/01/07 02:19:01;;;;;;;7.75;3.42;;;10.20;99.90;;;;;;4955470;29;20038;-85
2024/01/07 02:21:28;;;;;;;7.30;3.33;;;10.20;99.90;;;;;;4990366;28;20051;-83
2024/01/07 02:23:55;;;;;;;4.95;3.30;;;10.20;99.90;;;;;;4993908;28;20042;-84
2024/01/07 02:26:21;;;;;;;5.75;3.30;;;10.20;99.90;;;;;;4994389;28;20045;-85
2024/01/07 02:28:48;;;;;;;8.05;3.47;;;10.10;99.90;;;;;;4978563;28;20057;-84
2024/01/07 02:31:15;;;;;;;5.75;3.53;;;10.10;99.90;;;;;;4978422;28;20087;-84
2024/01/07 02:33:41;;;;;;;6.70;3.50;;;10.10;99.90;;;;;;4978846;28;20109;-84
2024/01/07 02:36:10;;;;;;;10.00;3.80;;;10.10;99.90;;;;;;4994619;28;20088;-84
2024/01/07 02:38:36;;;;;;;10.40;3.45;;;10.10;99.90;;;;;;4978637;28;20026;-85
2024/01/07 02:41:03;;;;;;;5.57;3.80;;;10.10;99.90;;;;;;4978593;28;20030;-85
2024/01/07 02:43:31;;;;;;;7.57;3.92;;;10.10;99.90;;;;;;4978581;28;20049;-84
2024/01/07 02:45:58;;;;;;;4.25;3.65;;;10.10;99.90;;;;;;4978440;28;20037;-84
2024/01/07 02:48:27;;;;;;;11.00;4.03;;;10.10;99.90;;;;;;4978434;28;20037;-84
2024/01/07 02:50:56;;;;;;;11.70;4.00;;;10.10;99.90;;;;;;4978398;28;20038;-84
2024/01/07 02:53:22;;;;;;;10.73;3.30;;;10.10;99.90;;;;;;4978379;28;20063;-85
2024/01/07 02:55:48;;;;;;;8.10;3.25;;;10.10;99.90;;;;;;4978230;28;20034;-85
2024/01/07 02:58:15;;;;;;;8.90;3.70;;;10.00;99.90;;;;;;4978198;28;20022;-83
2024/01/07 03:00:41;;;;;;;6.20;3.28;;;10.00;99.90;;;;;;4978328;28;20113;-85
2024/01/07 03:03:08;;;;;;;8.10;3.72;;;10.00;99.90;;;;;;4978020;28;20113;-84
2024/01/07 03:05:34;;;;;;;6.40;3.53;;;10.00;99.90;;;;;;4978045;28;20670;-85
2024/01/07 03:08:01;;;;;;;4.97;3.30;;;9.90;99.90;;;;;;4978062;28;20085;-84
2024/01/07 03:10:27;;;;;;;9.73;3.25;;;9.90;99.90;;;;;;4977935;28;20498;-84
2024/01/07 03:12:54;;;;;;;5.63;3.30;;;9.80;99.90;;;;;;4978167;28;20030;-84
2024/01/07 03:15:20;;;;;;;6.82;3.30;;;9.80;99.90;;;;;;4977800;28;20117;-83
2024/01/07 03:17:46;;;;;;;7.93;3.35;;;9.70;99.90;;;;;;4994048;28;20022;-84
2024/01/07 03:20:13;;;;;;;8.65;3.60;;;9.60;99.90;;;;;;4977659;28;20057;-84
2024/01/07 03:22:39;;;;;;;6.82;4.75;;;9.60;99.90;;;;;;4977649;28;20034;-84
2024/01/07 03:25:07;;;;;;;8.25;3.63;;;9.50;99.90;;;;;;4993457;28;20054;-84
2024/01/07 03:27:33;;;;;;;7.50;3.42;;;9.50;99.90;;;;;;4977575;28;20022;-84
2024/01/07 03:29:59;;;;;;;5.72;3.40;;;9.40;99.90;;;;;;4976419;28;20040;-84
2024/01/07 03:32:26;;;;;;;5.22;3.50;;;9.40;99.90;;;;;;4977485;28;20080;-84
2024/01/07 03:34:53;;;;;;;9.38;4.10;;;9.40;99.90;;;;;;4977135;28;20483;-85
2024/01/07 03:37:19;;;;;;;10.75;3.72;;;9.40;99.90;;;;;;4977539;28;20022;-84
2024/01/07 03:39:47;;;;;;;8.70;3.53;;;9.40;99.90;;;;;;4961628;28;20034;-85
2024/01/07 03:42:14;;;;;;;10.13;5.00;;;9.30;99.90;;;;;;4958294;28;20121;-84
2024/01/07 03:44:40;;;;;;;9.38;3.65;;;9.30;99.90;;;;;;4973902;28;20030;-85
2024/01/07 03:47:07;;;;;;;6.95;3.70;;;9.30;99.90;;;;;;4957977;28;20023;-83
2024/01/07 03:49:36;;;;;;;4.43;3.60;;;9.30;99.90;;;;;;4988024;28;20038;-84
2024/01/07 03:52:02;;;;;;;6.68;3.72;;;9.30;99.90;;;;;;4993469;28;20077;-84
2024/01/07 03:54:29;;;;;;;6.82;3.58;;;9.30;99.90;;;;;;4993292;28;20081;-85
2024/01/07 03:56:59;;;;;;;8.60;3.80;;;9.40;99.90;;;;;;4977003;28;20030;-84
2024/01/07 03:59:26;;;;;;;4.32;3.17;;;9.40;99.90;;;;;;4977114;28;20045;-84
2024/01/07 04:01:57;;;;;;;7.18;3.50;;;9.40;99.90;;;;;;4976978;28;20054;-85
2024/01/07 04:04:24;;;;;;;11.73;4.05;;;9.30;99.90;;;;;;4990225;28;20034;-83
2024/01/07 04:06:50;;;;;;;6.82;3.85;;;9.30;99.90;;;;;;4993460;28;20018;-84
2024/01/07 04:09:17;;;;;;;7.45;3.47;;;9.30;99.90;;;;;;4982682;28;20034;-84
2024/01/07 04:11:43;;;;;;;11.68;4.22;;;9.30;99.90;;;;;;4973890;28;20027;-85
2024/01/07 04:14:10;;;;;;;9.02;3.80;;;9.30;99.90;;;;;;4973854;28;20027;-84
2024/01/07 04:16:36;;;;;;;6.72;4.07;;;9.20;99.90;;;;;;4957339;28;20045;-84
2024/01/07 04:19:04;;;;;;;10.15;4.13;;;9.20;99.90;;;;;;4973571;28;20033;-84
2024/01/07 04:21:30;;;;;;;7.70;3.78;;;9.20;99.90;;;;;;4991422;28;20060;-85
2024/01/07 04:23:57;;;;;;;12.13;4.28;;;9.20;99.90;;;;;;4976871;28;20037;-85
2024/01/07 04:26:26;;;;;;;7.28;3.97;;;9.30;99.90;;;;;;4976886;28;20502;-84
2024/01/07 04:28:53;;;;;;;8.00;4.53;;;9.20;99.90;;;;;;4971041;28;20828;-84
2024/01/07 04:31:19;;;;;;;6.65;4.30;;;9.20;99.90;;;;;;4977450;28;20081;-85
2024/01/07 04:33:46;;;;;;;9.68;4.00;;;9.20;99.90;;;;;;4977522;28;20038;-85
2024/01/07 04:36:15;;;;;;;11.00;4.38;;;9.20;99.90;;;;;;4977240;28;20023;-84
2024/01/07 04:38:42;;;;;;;12.15;4.25;;;9.20;99.90;;;;;;4983656;28;20030;-84
2024/01/07 04:41:11;;;;;;;5.05;4.22;;;9.20;99.90;;;;;;4980661;28;20036;-85
2024/01/07 04:43:38;;;;;;;11.88;5.07;;;9.20;99.90;;;;;;4980465;28;20031;-84
2024/01/07 04:46:04;;;;;;;4.53;3.53;;;9.40;99.90;;;;;;4980393;28;20122;-85
2024/01/07 04:48:31;;;;;;;7.18;4.22;;;9.40;99.90;;;;;;4973598;28;20019;-83
2024/01/07 04:50:57;;;;;;;7.55;4.10;;;9.50;99.90;;;;;;4957582;28;20042;-84
2024/01/07 04:53:29;;;;;;;9.13;4.60;;;9.50;99.90;;;;;;4957844;28;20038;-84
2024/01/07 04:55:56;;;;;;;7.03;4.50;;;9.40;99.90;;;;;;4957753;28;20085;-84
2024/01/07 04:58:23;;;;;;;11.70;4.97;;;9.40;99.90;;;;;;4964456;28;20177;-85
2024/01/07 05:00:50;;;;;;;6.35;4.20;;;9.30;99.90;;;;;;4980218;28;20030;-84
2024/01/07 05:03:19;;;;;;;10.55;4.68;;;9.30;99.90;;;;;;4980312;28;20026;-84
2024/01/07 05:05:46;;;;;;;9.18;4.30;;;9.20;99.90;;;;;;4979913;28;20038;-84
2024/01/07 05:08:13;;;;;;;5.22;4.10;;;9.20;99.90;;;;;;4980021;28;20403;-84
2024/01/07 05:10:40;;;;;;;8.77;4.70;;;9.10;99.90;;;;;;4979743;28;20045;-83
2024/01/07 05:13:07;;;;;;;5.13;4.00;;;9.10;99.90;;;;;;4996410;28;20033;-85
2024/01/07 05:15:34;;;;;;;8.43;4.97;;;9.10;99.90;;;;;;4980191;28;20033;-85
2024/01/07 05:18:02;;;;;;;7.03;4.40;;;9.10;99.90;;;;;;4979965;28;20030;-84
2024/01/07 05:20:29;;;;;;;7.32;4.57;;;9.10;99.90;;;;;;4995943;28;20050;-84
2024/01/07 05:22:55;;;;;;;14.15;5.00;;;9.10;99.90;;;;;;4979719;28;20513;-84
2024/01/07 05:25:22;;;;;;;6.95;4.43;;;9.10;99.90;;;;;;4979752;28;20395;-84
2024/01/07 05:27:49;;;;;;;6.35;4.60;;;9.10;99.90;;;;;;4979650;28;20032;-85
2024/01/07 05:30:15;;;;;;;9.05;4.65;;;9.00;99.90;;;;;;4977712;28;20049;-84
2024/01/07 05:32:42;;;;;;;8.73;4.80;;;9.00;99.90;;;;;;4977486;28;20030;-84
2024/01/07 05:35:09;;;;;;;5.85;4.30;;;9.00;99.90;;;;;;4976299;28;20125;-85
2024/01/07 05:37:35;;;;;;;7.93;4.63;;;8.90;99.90;;;;;;4976409;28;20106;-84
2024/01/07 05:40:01;;;;;;;6.20;4.65;;;8.90;99.90;;;;;;4976483;28;20035;-86
2024/01/07 05:42:28;;;;;;;7.68;4.68;;;8.90;99.90;;;;;;4976636;28;20023;-85
2024/01/07 05:44:55;;;;;;;9.30;4.85;;;8.90;99.90;;;;;;4976369;28;20058;-85
2024/01/07 05:47:22;;;;;;;12.05;4.93;;;8.80;99.90;;;;;;4976096;28;20023;-84
2024/01/07 05:49:48;;;;;;;8.43;4.75;;;8.80;99.90;;;;;;4975812;28;20046;-84
2024/01/07 05:52:15;;;;;;;9.63;4.85;;;8.80;99.90;;;;;;4976184;28;20026;-84
2024/01/07 05:54:41;;;;;;;9.38;5.47;;;8.80;99.90;;;;;;4975823;28;20046;-83
2024/01/07 05:57:07;;;;;;;8.15;4.70;;;8.90;99.90;;;;;;4976089;28;20395;-84
2024/01/07 05:59:34;;;;;;;8.82;5.43;;;8.90;99.90;;;;;;4976059;28;20034;-85
2024/01/07 06:02:00;;;;;;;7.57;4.72;;;9.00;99.90;;;;;;4975903;28;20031;-85
2024/01/07 06:04:26;;;;;;;10.07;5.18;;;9.10;99.90;;;;;;4976030;28;20035;-85
2024/01/07 06:06:53;;;;;;;6.15;4.57;;;9.10;99.90;;;;;;4977023;28;20038;-85
2024/01/07 06:09:20;;;;;;;11.38;4.75;;;9.20;99.90;;;;;;4975805;28;20039;-85
2024/01/07 06:11:46;;;;;;;4.95;4.20;;;9.10;99.90;;;;;;4959787;28;20496;-86
2024/01/07 06:14:13;;;;;;;8.70;5.20;;;9.20;99.90;;;;;;4975958;28;20110;-86
2024/01/07 06:16:40;;;;;;;10.88;4.82;;;9.30;99.90;;;;;;4975952;28;20027;-85
2024/01/07 06:19:10;;;;;;;14.15;5.32;;;9.40;99.90;;;;;;4959720;28;20050;-85
2024/01/07 06:21:36;;;;;;;13.68;5.07;;;9.40;99.90;;;;;;4994135;28;20049;-86
2024/01/07 06:24:04;;;;;;;12.35;5.03;;;9.50;99.90;;;;;;4995153;28;20031;-85
2024/01/07 06:26:30;;;;;;;13.35;6.45;;;9.50;99.90;;;;;;4978975;28;20028;-87
2024/01/07 06:28:57;;;;;;;15.80;5.47;;;9.50;99.90;;;;;;4978984;28;20129;-84
2024/01/07 06:31:24;;;;;;;13.88;6.03;;;9.50;99.90;;;;;;4978740;28;20093;-83
2024/01/07 06:33:50;;;;;;;9.85;5.60;;;9.50;99.90;;;;;;4978679;28;20109;-86
2024/01/07 06:36:17;;;;;;;8.73;5.50;;;9.50;99.90;;;;;;4978424;28;20116;-84
2024/01/07 06:38:44;;;;;;;10.93;7.10;;;9.50;99.90;;;;;;4973399;28;20023;-85
2024/01/07 06:41:12;;;;;;;7.70;5.78;;;9.50;99.90;;;;;;4991422;28;20034;-84
2024/01/07 06:43:42;;;;;;;10.68;5.30;;;9.50;99.90;;;;;;4991586;28;20030;-86
2024/01/07 06:46:09;;;;;;;11.75;6.10;;;9.60;99.90;;;;;;4991273;28;20034;-85
2024/01/07 06:48:36;;;;;;;12.55;5.85;;;9.70;99.90;;;;;;4994292;28;20587;-86
2024/01/07 06:51:03;;;;;;;12.63;5.72;;;9.90;99.90;;;;;;4978127;28;20042;-86
2024/01/07 06:53:29;;;;;;;10.95;5.70;;;10.00;99.90;;;;;;4978686;28;20553;-85
2024/01/07 06:55:59;;;;;;;9.45;5.65;;;10.00;99.90;;;;;;4978344;28;20041;-85
2024/01/07 06:58:25;;;;;;;9.07;5.65;;;10.00;99.90;;;;;;4978312;28;20035;-85
2024/01/07 07:00:52;;;;;;;12.55;6.05;;;10.00;99.90;;;;;;4978310;28;20046;-85
2024/01/07 07:03:28;;;;;;;7.13;5.18;;;10.10;99.90;;;;;;4978363;28;20026;-86
2024/01/07 07:05:54;;;;;;;10.88;5.13;;;10.10;99.90;;;;;;4994482;28;20031;-85
2024/01/07 07:08:20;;;;;;;9.30;4.82;;;10.20;99.90;;;;;;4978294;28;20171;-86
2024/01/07 07:10:47;;;;;;;11.05;4.57;;;10.20;99.90;;;;;;4978011;28;20038;-85
2024/01/07 07:13:14;;;;;;;6.82;4.40;;;10.20;99.90;;;;;;4978277;28;20027;-85
2024/01/07 07:15:41;;;;;;;9.70;4.40;;;10.30;99.90;;;;;;4978047;28;20030;-85
2024/01/07 07:18:08;;;;;;;9.93;4.82;;;10.40;99.90;;;;;;4977813;28;20022;-87
2024/01/07 07:20:35;;;;;;;6.60;3.75;;;10.50;99.90;;;;;;4978042;28;20438;-85
2024/01/07 07:23:01;;;;;;;5.82;4.43;;;10.60;99.90;;;;;;4994204;28;20058;-86
2024/01/07 07:25:29;;;;;;;7.75;4.55;;;11.00;99.90;;;;;;4994250;28;20027;-88
2024/01/07 07:27:56;;;;;;;7.93;3.88;;;11.30;99.90;;;;;;4977974;28;20436;-86
2024/01/07 07:30:23;;;;;;;6.68;4.32;;;11.60;99.90;;;;;;4977776;28;20046;-86
2024/01/07 07:32:49;;;;;;;11.25;5.80;;;12.10;99.90;;;;;;4978044;28;20480;-86
2024/01/07 07:35:16;;;;;;;9.70;6.30;;;12.30;99.90;;;;;;4995092;28;20161;-86
2024/01/07 07:37:43;;;;;;;10.18;6.97;;;12.40;99.90;;;;;;4977849;28;20109;-87
2024/01/07 07:40:12;;;;;;;13.85;7.13;;;12.30;99.90;;;;;;4977834;28;20566;-86
2024/01/07 07:42:39;;;;;;;11.20;7.35;;;12.40;99.90;;;;;;4977725;28;20040;-87
2024/01/07 07:45:07;;;;;;;11.40;8.48;;;12.80;99.90;;;;;;4977758;28;20030;-86
2024/01/07 07:47:34;;;;;;;12.20;9.70;;;13.00;99.90;;;;;;4977637;28;20054;-87
2024/01/07 07:50:02;;;;;;;23.00;12.93;;;13.10;99.90;;;;;;4977625;28;20042;-86
2024/01/07 07:52:29;;;;;;;23.02;13.80;;;13.00;99.90;;;;;;4993776;28;20401;-87
2024/01/07 07:54:55;;;;;;;21.88;12.48;;;12.80;99.90;;;;;;4977967;28;20030;-86
2024/01/07 07:57:25;;;;;;;18.25;12.55;;;12.80;99.90;;;;;;4993483;28;20026;-85
2024/01/07 07:59:52;;;;;;;14.88;12.38;;;12.70;99.90;;;;;;4976899;28;20022;-85
2024/01/07 08:02:19;;;;;;;19.23;12.73;;;12.60;99.90;;;;;;4975940;28;20078;-85
2024/01/07 08:04:49;;;;;;;15.32;12.10;;;12.50;99.90;;;;;;4973630;28;20030;-86
2024/01/07 08:07:15;;;;;;;18.70;12.57;;;12.50;99.90;;;;;;4958588;28;20066;-85
2024/01/07 08:09:42;;;;;;;16.80;11.10;;;12.50;99.90;;;;;;4958045;28;20500;-86
2024/01/07 08:12:08;;;;;;;15.50;11.85;;;12.50;99.90;;;;;;4958194;28;20484;-86
2024/01/07 08:14:35;;;;;;;14.45;10.85;;;12.50;99.90;;;;;;4957936;28;20027;-84
2024/01/07 08:17:04;;;;;;;14.93;10.65;;;12.40;99.90;;;;;;4973929;28;20050;-86
2024/01/07 08:19:31;;;;;;;16.30;11.30;;;12.50;99.90;;;;;;4976791;28;20095;-86
2024/01/07 08:21:58;;;;;;;11.60;10.43;;;12.60;99.90;;;;;;4996815;28;20121;-85
2024/01/07 08:24:29;;;;;;;11.02;9.90;;;12.70;99.90;;;;;;4980192;28;20522;-85
2024/01/07 08:26:57;;;;;;;15.93;9.40;;;12.80;99.90;;;;;;4996651;28;20036;-86
2024/01/07 08:29:24;;;;;;;12.15;8.93;;;13.00;99.90;;;;;;4980296;28;20592;-84
2024/01/07 08:31:50;;;;;;;11.52;8.23;;;13.10;99.90;;;;;;4996652;28;20407;-86
2024/01/07 08:34:17;;;;;;;13.82;8.05;;;13.20;99.90;;;;;;4979921;28;20554;-82
2024/01/07 08:36:44;;;;;;;7.93;7.18;;;13.20;99.90;;;;;;4995154;28;20083;-85
2024/01/07 08:39:11;;;;;;;8.35;7.55;;;13.20;99.90;;;;;;4979334;28;20076;-84
2024/01/07 08:41:37;;;;;;;9.10;7.60;;;13.20;99.90;;;;;;4980042;28;20030;-88
2024/01/07 08:44:04;;;;;;;9.70;7.80;;;13.40;99.90;;;;;;4996069;28;20058;-85
2024/01/07 08:46:30;;;;;;;10.95;7.80;;;13.70;99.90;;;;;;4996040;28;20092;-83
2024/01/07 08:48:56;;;;;;;9.27;8.35;;;13.80;99.90;;;;;;4979981;28;20029;-89
2024/01/07 08:51:23;;;;;;;11.48;8.60;;;14.00;99.90;;;;;;4996026;28;20462;-88
2024/01/07 08:53:49;;;;;;;9.80;9.07;;;13.90;99.90;;;;;;4979814;28;20029;-86
2024/01/07 08:56:19;;;;;;;9.57;8.65;;;14.00;99.90;;;;;;4979682;28;20062;-86
2024/01/07 08:58:46;;;;;;;9.73;8.93;;;14.20;99.90;;;;;;4979851;28;20030;-85
2024/01/07 09:01:14;;;;;;;9.82;9.00;;;14.30;99.90;;;;;;4979617;28;20030;-86
2024/01/07 09:03:42;;;;;;;11.55;10.40;;;14.30;99.90;;;;;;4980156;28;20029;-89
2024/01/07 09:06:08;;;;;;;15.55;10.50;;;14.40;99.90;;;;;;4980099;28;20026;-85
2024/01/07 09:08:35;;;;;;;11.05;9.80;;;14.30;99.90;;;;;;4995885;28;20586;-86
2024/01/07 09:11:06;;;;;;;10.02;9.50;;;14.20;99.90;;;;;;4995790;28;20121;-85
2024/01/07 09:13:32;;;;;;;11.38;9.90;;;14.10;99.90;;;;;;4995519;28;20117;-86
2024/01/07 09:15:59;;;;;;;10.48;9.70;;;14.10;99.90;;;;;;4999289;28;20029;-84
2024/01/07 09:18:25;;;;;;;10.45;9.52;;;14.10;99.90;;;;;;4999090;28;20080;-88
2024/01/07 09:20:52;;;;;;;10.50;9.77;;;14.10;99.90;;;;;;4979553;28;20050;-89
2024/01/07 09:23:19;;;;;;;11.50;10.60;;;14.20;99.90;;;;;;4964110;28;20116;-88
2024/01/07 09:25:46;;;;;;;9.95;9.25;;;14.30;99.90;;;;;;4963875;28;20065;-86
2024/01/07 09:28:12;;;;;;;14.80;9.85;;;14.50;99.90;;;;;;4963679;28;20026;-86
2024/01/07 09:30:39;;;;;;;10.05;9.27;;;14.60;99.90;;;;;;4979838;28;20040;-88
2024/01/07 09:33:06;;;;;;;10.35;9.50;;;14.60;99.90;;;;;;4979847;28;20089;-87
2024/01/07 09:35:33;;;;;;;10.82;9.93;;;14.80;99.90;;;;;;4963654;28;20026;-88
2024/01/07 09:37:59;;;;;;;12.27;11.13;;;14.90;99.90;;;;;;4979691;28;20084;-86
2024/01/07 09:40:26;;;;;;;13.52;11.30;;;15.00;99.90;;;;;;4963658;28;20030;-87
2024/01/07 09:42:53;;;;;;;11.15;10.35;;;15.00;99.90;;;;;;4963811;28;20023;-87
2024/01/07 09:45:23;;;;;;;12.13;11.32;;;15.10;99.90;;;;;;4963604;28;20030;-87
2024/01/07 09:47:53;;;;;;;11.82;10.77;;;15.20;99.90;;;;;;4963776;28;20033;-87
2024/01/07 09:50:20;;;;;;;11.65;11.05;;;15.10;99.90;;;;;;4963679;28;20038;-88
2024/01/07 09:52:48;;;;;;;13.32;11.45;;;15.10;99.90;;;;;;4963680;28;20038;-88
2024/01/07 09:55:30;;;;;;;12.00;11.20;;;15.10;99.90;;;;;;4963646;28;20105;-88
2024/01/07 09:57:57;;;;;;;12.80;11.90;;;15.00;99.90;;;;;;4963739;28;20026;-87
2024/01/07 10:00:28;;;;;;;13.32;12.05;;;14.90;99.90;;;;;;4978599;28;20097;-87
2024/01/07 10:02:55;;;;;;;12.77;11.40;;;14.90;99.90;;;;;;4999264;28;20030;-88
2024/01/07 10:05:22;;;;;;;12.55;11.40;;;14.80;99.90;;;;;;4982788;28;20033;-87
2024/01/07 10:07:49;;;;;;;11.63;10.50;;;14.60;99.90;;;;;;4998751;28;20061;-82
2024/01/07 10:10:16;;;;;;;11.30;10.40;;;14.50;99.90;;;;;;4978724;28;20076;-84
2024/01/07 10:12:47;;;;;;;10.80;9.93;;;14.30;99.90;;;;;;4978818;28;20396;-88
2024/01/07 10:15:14;;;;;;;10.88;9.70;;;14.20;99.90;;;;;;4979581;28;20034;-88
2024/01/07 10:17:46;;;;;;;10.57;9.52;;;14.10;99.90;;;;;;4979583;28;20033;-88
2024/01/07 10:20:13;;;;;;;11.98;10.75;;;14.00;99.90;;;;;;4975883;28;20448;-88
2024/01/07 10:22:39;;;;;;;19.05;11.90;;;13.90;99.90;;;;;;4960150;28;20030;-88
2024/01/07 10:25:06;;;;;;;14.18;10.00;;;13.80;99.90;;;;;;4991611;28;20104;-87
2024/01/07 10:27:37;;;;;;;8.32;7.63;;;13.80;99.90;;;;;;4975831;28;20058;-89
2024/01/07 10:30:06;;;;;;;9.63;8.68;;;13.70;99.90;;;;;;4983188;28;20065;-88
2024/01/07 10:32:37;;;;;;;19.67;11.05;;;13.80;99.90;;;;;;4992168;28;20026;-88
2024/01/07 10:35:04;;;;;;;8.75;8.05;;;13.90;99.90;;;;;;4975865;28;20035;-87
2024/01/07 10:37:32;;;;;;;7.75;6.82;;;13.90;99.90;;;;;;4975845;28;20166;-88
2024/01/07 10:40:03;;;;;;;7.28;6.68;;;14.00;99.90;;;;;;4975398;28;20031;-89
2024/01/07 10:42:33;;;;;;;8.48;7.50;;;14.20;99.90;;;;;;4992084;28;20027;-90
2024/01/07 10:45:01;;;;;;;9.68;7.80;;;14.30;99.90;;;;;;4991692;28;20027;-88
2024/01/07 10:47:31;;;;;;;9.98;8.00;;;14.30;99.90;;;;;;4975569;28;20457;-87
2024/01/07 10:49:59;;;;;;;12.38;9.40;;;14.30;99.90;;;;;;4991410;28;20031;-87
2024/01/07 10:52:29;;;;;;;15.23;8.85;;;14.10;99.90;;;;;;4975687;28;20034;-87
2024/01/07 10:55:01;;;;;;;9.60;6.90;;;14.10;99.90;;;;;;4991754;28;20030;-88
2024/01/07 10:57:47;;;;;;;15.68;8.55;;;13.80;99.90;;;;;;4991608;28;20041;-89
2024/01/07 11:00:20;;;;;;;20.50;9.70;;;13.60;99.90;;;;;;4991392;28;20027;-87
2024/01/07 11:03:14;;;;;;;21.70;9.75;;;13.40;99.90;;;;;;4991550;28;20053;-87
2024/01/07 11:05:50;;;;;;;10.13;7.78;;;13.20;99.90;;;;;;4991310;28;20023;-88
2024/01/07 11:08:54;;;;;;;12.93;6.82;;;13.00;99.90;;;;;;4975153;28;20042;-88
2024/01/07 11:11:35;;;;;;;10.20;6.22;;;12.90;99.90;;;;;;4925204;28;20040;-88
2024/01/07 11:14:02;;;;;;;12.73;6.15;;;12.80;99.90;;;;;;4991377;28;20396;-88
2024/01/07 11:16:49;;;;;;;7.32;4.90;;;12.60;99.90;;;;;;4974991;28;20023;-88
2024/01/07 11:19:20;;;;;;;9.40;6.85;;;12.30;99.90;;;;;;4975106;28;20031;-88
2024/01/07 11:21:47;;;;;;;7.07;6.03;;;12.20;99.90;;;;;;4975513;28;20057;-87
2024/01/07 11:24:40;;;;;;;7.13;5.90;;;12.30;99.90;;;;;;4958803;28;20037;-87
2024/01/07 11:27:10;;;;;;;15.90;6.32;;;12.30;99.90;;;;;;4974948;28;20030;-88
2024/01/07 11:29:37;;;;;;;10.02;5.38;;;12.30;99.90;;;;;;4974924;28;20381;-89
2024/01/07 11:32:06;;;;;;;9.02;6.15;;;12.30;99.90;;;;;;4958967;28;20046;-88
2024/01/07 11:34:51;;;;;;;13.25;5.35;;;12.40;99.90;;;;;;4974789;28;20027;-87
2024/01/07 11:37:20;;;;;;;16.13;4.88;;;12.60;99.90;;;;;;4974536;28;20032;-88
2024/01/07 11:39:49;;;;;;;17.38;6.13;;;12.80;99.90;;;;;;4958381;28;20027;-89
2024/01/07 11:42:16;;;;;;;8.93;4.32;;;12.80;99.90;;;;;;4974735;28;20039;-88
2024/01/07 11:44:54;;;;;;;15.10;3.67;;;12.80;99.90;;;;;;4958492;28;20556;-87
2024/01/07 11:47:22;;;;;;;7.20;3.60;;;12.90;99.90;;;;;;4974405;28;20089;-85
2024/01/07 11:49:54;;;;;;;9.27;3.83;;;13.00;99.90;;;;;;4958478;28;20045;-87
2024/01/07 11:52:21;;;;;;;12.57;3.75;;;13.00;99.90;;;;;;4974471;28;20027;-87
2024/01/07 11:54:49;;;;;;;12.27;4.38;;;13.00;99.90;;;;;;4958255;28;20130;-88
2024/01/07 11:57:16;;;;;;;9.52;4.63;;;13.10;99.90;;;;;;4974444;28;20492;-88
2024/01/07 11:59:42;;;;;;;6.70;4.93;;;13.30;99.90;;;;;;4957940;28;20034;-88
2024/01/07 12:02:09;;;;;;;10.98;4.20;;;13.50;99.90;;;;;;4974399;28;20042;-88
2024/01/07 12:04:36;;;;;;;5.68;4.97;;;13.60;99.90;;;;;;4958277;28;20031;-89
2024/01/07 12:07:03;;;;;;;8.38;4.97;;;13.60;99.90;;;;;;4974135;28;20030;-88
2024/01/07 12:09:30;;;;;;;11.95;5.80;;;13.60;99.90;;;;;;4955163;28;20389;-89
2024/01/07 12:11:57;;;;;;;6.82;5.68;;;13.50;99.90;;;;;;4955011;28;20039;-88
2024/01/07 12:14:24;;;;;;;5.93;5.57;;;13.60;99.90;;;;;;4954839;28;20043;-89
2024/01/07 12:17:03;;;;;;;8.82;6.03;;;13.60;99.90;;;;;;4954964;28;20031;-91
2024/01/07 12:19:41;;;;;;;7.65;6.95;;;13.60;99.90;;;;;;4966726;28;20019;-87
2024/01/07 12:22:24;;;;;;;7.60;6.85;;;13.60;99.90;;;;;;4980373;28;20038;-86
2024/01/07 12:25:09;;;;;;;7.53;7.03;;;13.50;99.90;;;;;;4997338;28;20108;-87
2024/01/07 12:27:42;;;;;;;8.30;7.50;;;13.60;99.90;;;;;;4980863;28;20081;-88
2024/01/07 12:30:11;;;;;;;8.27;7.57;;;13.60;99.90;;;;;;4996273;28;20109;-91
2024/01/07 12:32:37;;;;;;;8.77;7.95;;;13.60;99.90;;;;;;4980360;28;20036;-87
2024/01/07 12:35:05;;;;;;;9.05;8.10;;;13.50;99.90;;;;;;4980377;28;20034;-86
2024/01/07 12:37:32;;;;;;;11.52;7.80;;;13.50;99.90;;;;;;4980236;28;20482;-87
2024/01/07 12:39:59;;;;;;;13.20;8.30;;;13.50;99.90;;;;;;4996578;28;20069;-87
2024/01/07 12:42:26;;;;;;;10.52;7.97;;;13.50;99.90;;;;;;4980215;28;20029;-84
2024/01/07 12:44:56;;;;;;;14.40;8.38;;;13.50;99.90;;;;;;4995874;28;20116;-87
2024/01/07 12:47:25;;;;;;;14.60;9.52;;;13.50;99.90;;;;;;4975749;28;20031;-88